Time;durP1;ratioP1;P1;durP2;ratioP2;P2;SDS_P1;SDS_P2;PMS_P1;PMS_P2;Temp;Humidity;BMP_temperature;BMP_pressure;BME280_temperature;BME280_humidity;BME280_pressure;Samples;Min_cycle;Max_cycle;Signal;HPM_P1;HPM_P2
2023/03/04 00:01:44;;;;;;;14.55;2.92;;;6.10;99.90;;;;;;5011382;28;20121;-72
2023/03/04 00:04:10;;;;;;;15.65;3.63;;;6.10;99.90;;;;;;4999546;28;20081;-72
2023/03/04 00:06:36;;;;;;;16.38;3.30;;;6.10;99.90;;;;;;5027420;28;20131;-72
2023/03/04 00:09:03;;;;;;;18.95;3.70;;;6.10;99.90;;;;;;5020656;28;20068;-72
2023/03/04 00:11:30;;;;;;;13.80;2.65;;;6.10;99.90;;;;;;5022639;28;20701;-72
2023/03/04 00:13:57;;;;;;;14.70;3.05;;;6.10;99.90;;;;;;5006458;28;20128;-72
2023/03/04 00:16:27;;;;;;;18.38;2.83;;;6.10;99.90;;;;;;5012339;28;20475;-72
2023/03/04 00:18:56;;;;;;;20.90;3.97;;;6.10;99.90;;;;;;5011806;28;20560;-75
2023/03/04 00:21:22;;;;;;;16.53;3.03;;;6.10;99.90;;;;;;5001924;28;20045;-75
2023/03/04 00:23:49;;;;;;;16.33;3.42;;;6.10;99.90;;;;;;5013290;28;20080;-75
2023/03/04 00:26:16;;;;;;;14.43;3.03;;;6.10;99.90;;;;;;5010942;28;20049;-75
2023/03/04 00:28:43;;;;;;;14.57;3.33;;;6.10;99.90;;;;;;5024556;28;20048;-75
2023/03/04 00:31:10;;;;;;;17.23;4.35;;;6.10;99.90;;;;;;5001316;28;20116;-75
2023/03/04 00:33:36;;;;;;;16.35;3.60;;;6.10;99.90;;;;;;5009377;28;20050;-75
2023/03/04 00:36:03;;;;;;;19.40;3.65;;;6.00;99.90;;;;;;5008903;28;20111;-75
2023/03/04 00:38:28;;;;;;;18.58;4.03;;;6.00;99.90;;;;;;5015208;28;20053;-75
2023/03/04 00:40:54;;;;;;;17.88;4.00;;;6.00;99.90;;;;;;5013834;28;20045;-75
2023/03/04 00:43:21;;;;;;;13.80;3.25;;;6.00;99.90;;;;;;5020111;28;20069;-75
2023/03/04 00:45:47;;;;;;;23.60;4.22;;;6.00;99.90;;;;;;5011184;28;20078;-75
2023/03/04 00:48:13;;;;;;;17.33;3.33;;;6.00;99.90;;;;;;5001954;28;20413;-75
2023/03/04 00:50:39;;;;;;;15.95;3.50;;;6.00;99.90;;;;;;5000886;28;20582;-75
2023/03/04 00:53:05;;;;;;;14.50;3.75;;;6.00;99.90;;;;;;5000384;28;20054;-75
2023/03/04 00:55:31;;;;;;;11.30;2.95;;;6.00;99.90;;;;;;4998982;28;20049;-75
2023/03/04 00:57:56;;;;;;;17.30;2.88;;;6.00;99.90;;;;;;5001344;28;20205;-75
2023/03/04 01:00:22;;;;;;;14.98;3.15;;;6.00;99.90;;;;;;5018020;28;20065;-75
2023/03/04 01:02:48;;;;;;;17.70;3.20;;;6.10;99.90;;;;;;4994344;28;20049;-75
2023/03/04 01:05:14;;;;;;;16.80;3.40;;;6.00;99.90;;;;;;5005575;28;20378;-75
2023/03/04 01:07:40;;;;;;;17.42;3.63;;;6.00;99.90;;;;;;5012241;28;20408;-73
2023/03/04 01:10:08;;;;;;;16.20;3.75;;;6.00;99.90;;;;;;4992578;28;20049;-73
2023/03/04 01:12:34;;;;;;;14.52;2.97;;;6.00;99.90;;;;;;4998510;28;20049;-73
2023/03/04 01:15:03;;;;;;;15.10;3.10;;;5.90;99.90;;;;;;5018216;28;20096;-73
2023/03/04 01:17:32;;;;;;;14.30;2.88;;;6.00;99.90;;;;;;5009819;28;20045;-72
2023/03/04 01:19:58;;;;;;;10.50;2.40;;;6.00;99.90;;;;;;5024442;28;20050;-73
2023/03/04 01:22:24;;;;;;;15.23;3.28;;;6.00;99.90;;;;;;5020042;28;20068;-73
2023/03/04 01:24:50;;;;;;;14.88;3.08;;;6.00;99.90;;;;;;5008945;28;20138;-73
2023/03/04 01:27:16;;;;;;;16.25;3.17;;;6.10;99.90;;;;;;4983609;28;20112;-72
2023/03/04 01:29:42;;;;;;;14.00;2.88;;;6.00;99.90;;;;;;4981771;28;20041;-72
2023/03/04 01:32:08;;;;;;;13.95;3.08;;;6.10;99.90;;;;;;5000074;28;20070;-73
2023/03/04 01:34:35;;;;;;;14.43;3.00;;;6.00;99.90;;;;;;5017554;28;20208;-73
2023/03/04 01:37:00;;;;;;;14.68;3.30;;;6.00;99.90;;;;;;5017713;28;20049;-73
2023/03/04 01:39:26;;;;;;;14.60;2.72;;;6.00;99.90;;;;;;4997829;28;20046;-72
2023/03/04 01:41:52;;;;;;;16.90;3.72;;;6.00;99.90;;;;;;5013489;28;20115;-73
2023/03/04 01:44:18;;;;;;;12.90;2.97;;;6.00;99.90;;;;;;5005651;28;20080;-73
2023/03/04 01:46:50;;;;;;;16.80;3.08;;;6.00;99.90;;;;;;4993405;28;20050;-73
2023/03/04 01:49:16;;;;;;;16.17;3.20;;;6.00;99.90;;;;;;5006613;28;20590;-73
2023/03/04 01:52:01;;;;;;;12.73;2.60;;;5.90;99.90;;;;;;4995938;28;20521;-72
2023/03/04 01:54:26;;;;;;;12.65;2.85;;;5.90;99.90;;;;;;5011530;28;20045;-73
2023/03/04 01:56:57;;;;;;;19.55;3.72;;;6.00;99.90;;;;;;5011439;28;20038;-73
2023/03/04 01:59:30;;;;;;;14.73;2.95;;;6.00;99.90;;;;;;4980372;28;20076;-73
2023/03/04 02:01:58;;;;;;;12.73;3.00;;;6.00;99.90;;;;;;5015419;28;20049;-73
2023/03/04 02:04:27;;;;;;;16.92;3.30;;;6.00;99.90;;;;;;5012793;28;20052;-72
2023/03/04 02:06:58;;;;;;;14.40;2.63;;;6.00;99.90;;;;;;4993730;28;20053;-73
2023/03/04 02:09:24;;;;;;;13.70;2.78;;;6.00;99.90;;;;;;4975402;28;20312;-73
2023/03/04 02:11:51;;;;;;;13.05;2.72;;;6.00;99.90;;;;;;5012758;28;20562;-73
2023/03/04 02:14:18;;;;;;;12.63;2.20;;;6.00;99.90;;;;;;5006452;28;20081;-73
2023/03/04 02:16:44;;;;;;;15.15;3.33;;;5.90;99.90;;;;;;5008396;28;20060;-73
2023/03/04 02:19:29;;;;;;;9.50;2.83;;;5.90;99.90;;;;;;5009495;28;20041;-73
2023/03/04 02:21:55;;;;;;;13.52;2.60;;;6.00;99.90;;;;;;5009157;28;21599;-74
2023/03/04 02:24:49;;;;;;;18.02;2.85;;;6.00;99.90;;;;;;5006601;28;20064;-74
2023/03/04 02:27:15;;;;;;;12.65;2.30;;;6.00;99.90;;;;;;5022602;28;20053;-73
2023/03/04 02:29:41;;;;;;;17.42;3.42;;;6.00;99.90;;;;;;4997867;28;20042;-75
2023/03/04 02:32:11;;;;;;;18.00;3.80;;;6.00;99.90;;;;;;4996277;28;20034;-74
2023/03/04 02:34:38;;;;;;;12.45;2.40;;;6.00;99.90;;;;;;4994631;28;20128;-74
2023/03/04 02:37:06;;;;;;;16.08;3.67;;;5.90;99.90;;;;;;4999763;28;20498;-74
2023/03/04 02:39:38;;;;;;;17.23;3.80;;;5.90;99.90;;;;;;5012302;28;20037;-73
2023/03/04 02:42:04;;;;;;;16.33;3.85;;;5.90;99.90;;;;;;5008918;28;22112;-74
2023/03/04 02:44:33;;;;;;;11.05;2.38;;;5.90;99.90;;;;;;5007871;28;20077;-74
2023/03/04 02:47:00;;;;;;;14.32;3.25;;;5.90;99.90;;;;;;5014214;28;20547;-74
2023/03/04 02:49:28;;;;;;;14.77;2.90;;;5.80;99.90;;;;;;5013345;28;20054;-74
2023/03/04 02:52:16;;;;;;;18.65;3.28;;;5.80;99.90;;;;;;5009484;28;20125;-73
2023/03/04 02:54:44;;;;;;;14.18;2.70;;;5.90;99.90;;;;;;5011059;28;20476;-74
2023/03/04 02:57:12;;;;;;;14.18;3.00;;;5.80;99.90;;;;;;4997461;28;20078;-74
2023/03/04 02:59:39;;;;;;;11.13;2.92;;;5.80;99.90;;;;;;5009689;28;20405;-74
2023/03/04 03:02:06;;;;;;;11.00;2.72;;;5.80;99.90;;;;;;4997067;28;20060;-74
2023/03/04 03:04:32;;;;;;;14.48;3.00;;;5.80;99.90;;;;;;5015808;28;20064;-74
2023/03/04 03:06:58;;;;;;;14.93;3.08;;;5.80;99.90;;;;;;5012691;28;20511;-74
2023/03/04 03:09:24;;;;;;;17.38;3.40;;;5.80;99.90;;;;;;5007563;28;20047;-74
2023/03/04 03:11:49;;;;;;;13.52;2.85;;;5.80;99.90;;;;;;5019393;28;20076;-74
2023/03/04 03:14:15;;;;;;;16.65;3.22;;;5.80;99.90;;;;;;5000251;28;20045;-75
2023/03/04 03:16:42;;;;;;;12.40;2.55;;;5.80;99.90;;;;;;4980839;28;20119;-74
2023/03/04 03:19:08;;;;;;;14.93;3.13;;;5.90;99.90;;;;;;5009999;28;20054;-74
2023/03/04 03:21:33;;;;;;;13.85;2.88;;;5.80;99.90;;;;;;4998197;28;20630;-74
2023/03/04 03:23:59;;;;;;;13.93;3.20;;;5.80;99.90;;;;;;5010272;28;20084;-74
2023/03/04 03:26:25;;;;;;;13.18;2.95;;;5.80;99.90;;;;;;5004639;28;20154;-73
2023/03/04 03:28:51;;;;;;;10.25;2.58;;;5.80;99.90;;;;;;5004286;28;20691;-74
2023/03/04 03:31:17;;;;;;;13.82;2.67;;;5.80;99.90;;;;;;4986221;28;20049;-74
2023/03/04 03:33:43;;;;;;;11.35;2.83;;;5.80;99.90;;;;;;5012102;28;20034;-74
2023/03/04 03:36:09;;;;;;;14.70;3.20;;;5.80;99.90;;;;;;5004514;28;20447;-74
2023/03/04 03:38:38;;;;;;;16.75;2.83;;;5.80;99.90;;;;;;5000430;28;20045;-74
2023/03/04 03:41:04;;;;;;;12.18;2.65;;;5.80;99.90;;;;;;5011849;28;20514;-72
2023/03/04 03:43:29;;;;;;;11.93;2.53;;;5.80;99.90;;;;;;4996875;28;20049;-72
2023/03/04 03:45:55;;;;;;;15.63;2.90;;;5.80;99.90;;;;;;4999087;28;20045;-72
2023/03/04 03:48:21;;;;;;;14.88;2.47;;;5.80;99.90;;;;;;4985226;28;20041;-74
2023/03/04 03:50:50;;;;;;;13.38;2.40;;;5.80;99.90;;;;;;5008016;28;20053;-74
2023/03/04 03:53:19;;;;;;;17.90;3.92;;;5.80;99.90;;;;;;4984989;28;20056;-74
2023/03/04 03:55:45;;;;;;;12.80;3.10;;;5.80;99.90;;;;;;4995323;28;20428;-75
2023/03/04 03:58:11;;;;;;;13.48;2.80;;;5.80;99.90;;;;;;4995046;28;20060;-75
2023/03/04 04:00:36;;;;;;;16.00;3.00;;;5.70;99.90;;;;;;4997056;28;20080;-75
2023/03/04 04:03:03;;;;;;;15.25;3.47;;;5.80;99.90;;;;;;5016196;28;20045;-75
2023/03/04 04:05:28;;;;;;;12.18;3.05;;;5.80;99.90;;;;;;4991760;28;20041;-76
2023/03/04 04:07:57;;;;;;;15.13;2.72;;;5.80;99.90;;;;;;4986318;28;20064;-75
2023/03/04 04:10:23;;;;;;;11.13;3.00;;;5.70;99.90;;;;;;5019353;28;20180;-76
2023/03/04 04:12:49;;;;;;;12.90;3.28;;;5.70;99.90;;;;;;5018513;28;20508;-75
2023/03/04 04:15:15;;;;;;;17.40;3.38;;;5.70;99.90;;;;;;5004419;28;20625;-76
2023/03/04 04:17:40;;;;;;;13.40;2.78;;;5.70;99.90;;;;;;4985323;28;20061;-75
2023/03/04 04:20:07;;;;;;;15.23;2.65;;;5.80;99.90;;;;;;5014445;28;20505;-75
2023/03/04 04:22:33;;;;;;;11.75;3.50;;;5.80;99.90;;;;;;5005510;28;20046;-75
2023/03/04 04:25:00;;;;;;;11.82;2.83;;;5.80;99.90;;;;;;5005406;28;20042;-73
2023/03/04 04:27:26;;;;;;;14.90;2.88;;;5.80;99.90;;;;;;5014715;28;20144;-72
2023/03/04 04:29:51;;;;;;;13.90;2.90;;;5.80;99.90;;;;;;5032223;28;20103;-73
2023/03/04 04:32:17;;;;;;;11.57;2.75;;;5.70;99.90;;;;;;5021602;28;20053;-72
2023/03/04 04:34:43;;;;;;;12.35;2.47;;;5.70;99.90;;;;;;4984408;28;20046;-73
2023/03/04 04:37:09;;;;;;;12.43;2.90;;;5.70;99.90;;;;;;5016249;28;20676;-73
2023/03/04 04:39:35;;;;;;;12.95;2.30;;;5.70;99.90;;;;;;5025258;28;20102;-73
2023/03/04 04:42:01;;;;;;;18.40;2.88;;;5.70;99.90;;;;;;5028505;28;20133;-73
2023/03/04 04:44:27;;;;;;;9.27;2.25;;;5.70;99.90;;;;;;5028667;28;20096;-73
2023/03/04 04:46:52;;;;;;;15.68;2.72;;;5.70;99.90;;;;;;4987521;28;20108;-73
2023/03/04 04:49:18;;;;;;;12.98;2.72;;;5.80;99.90;;;;;;5016832;28;20041;-73
2023/03/04 04:51:44;;;;;;;11.27;2.80;;;5.80;99.90;;;;;;5033877;28;20310;-74
2023/03/04 04:54:12;;;;;;;14.07;2.92;;;5.80;99.90;;;;;;4975743;28;20046;-73
2023/03/04 04:56:38;;;;;;;13.23;2.47;;;5.70;99.90;;;;;;5020626;28;20059;-73
2023/03/04 04:59:07;;;;;;;13.38;2.33;;;5.70;99.90;;;;;;5031597;28;20049;-73
2023/03/04 05:01:33;;;;;;;13.60;2.95;;;5.70;99.90;;;;;;5022335;28;20063;-73
2023/03/04 05:03:59;;;;;;;14.10;3.00;;;5.70;99.90;;;;;;5005431;28;20045;-73
2023/03/04 05:06:26;;;;;;;11.27;2.53;;;5.70;99.90;;;;;;5009242;28;20499;-72
2023/03/04 05:08:55;;;;;;;15.23;2.70;;;5.70;99.90;;;;;;5008741;28;20108;-73
2023/03/04 05:11:21;;;;;;;15.18;3.42;;;5.70;99.90;;;;;;4992180;28;20449;-73
2023/03/04 05:13:47;;;;;;;17.88;3.17;;;5.70;99.90;;;;;;5005278;28;20056;-73
2023/03/04 05:16:14;;;;;;;13.20;2.83;;;5.70;99.90;;;;;;5005640;28;20598;-73
2023/03/04 05:18:40;;;;;;;11.60;2.80;;;5.70;99.90;;;;;;5025138;28;20526;-73
2023/03/04 05:21:06;;;;;;;16.13;4.03;;;5.60;99.90;;;;;;5006922;28;20604;-73
2023/03/04 05:23:35;;;;;;;10.98;2.33;;;5.60;99.90;;;;;;4996359;28;20104;-73
2023/03/04 05:26:01;;;;;;;11.20;3.30;;;5.60;99.90;;;;;;5023563;28;20238;-72
2023/03/04 05:28:27;;;;;;;11.43;3.00;;;5.60;99.90;;;;;;5020924;28;20072;-73
2023/03/04 05:30:53;;;;;;;14.40;3.00;;;5.60;99.90;;;;;;5021423;28;20546;-73
2023/03/04 05:33:19;;;;;;;11.45;2.85;;;5.50;99.90;;;;;;5005941;28;20052;-72
2023/03/04 05:35:47;;;;;;;11.20;2.40;;;5.60;99.90;;;;;;5003924;28;20046;-73
2023/03/04 05:38:16;;;;;;;14.88;3.00;;;5.60;99.90;;;;;;5023584;28;20053;-73
2023/03/04 05:40:43;;;;;;;12.25;2.60;;;5.60;99.90;;;;;;5021121;28;20722;-73
2023/03/04 05:43:09;;;;;;;13.35;2.80;;;5.60;99.90;;;;;;5020580;28;20545;-73
2023/03/04 05:45:36;;;;;;;10.10;2.17;;;5.60;99.90;;;;;;4997882;28;20049;-73
2023/03/04 05:48:02;;;;;;;10.15;2.92;;;5.60;99.90;;;;;;5025390;28;20060;-73
2023/03/04 05:50:28;;;;;;;11.88;3.60;;;5.60;99.90;;;;;;4994246;28;20056;-72
2023/03/04 05:52:53;;;;;;;13.45;2.95;;;5.60;99.90;;;;;;5001629;28;20382;-73
2023/03/04 05:55:22;;;;;;;12.40;3.50;;;5.60;99.90;;;;;;5014711;28;20648;-72
2023/03/04 05:57:48;;;;;;;9.73;2.25;;;5.60;99.90;;;;;;5000369;28;20052;-73
2023/03/04 06:00:15;;;;;;;17.58;2.67;;;5.60;99.90;;;;;;4989424;28;20123;-73
2023/03/04 06:02:42;;;;;;;11.95;2.53;;;5.50;99.90;;;;;;4992664;28;20053;-73
2023/03/04 06:05:09;;;;;;;9.40;2.22;;;5.50;99.90;;;;;;5011984;28;20048;-73
2023/03/04 06:07:35;;;;;;;11.18;2.85;;;5.60;99.90;;;;;;5000163;28;20056;-73
2023/03/04 06:10:01;;;;;;;9.57;2.58;;;5.60;99.90;;;;;;5000585;28;20650;-73
2023/03/04 06:12:27;;;;;;;9.23;2.47;;;5.70;99.90;;;;;;5017157;28;20196;-73
2023/03/04 06:14:54;;;;;;;8.45;2.30;;;5.60;99.90;;;;;;5014784;28;20061;-73
2023/03/04 06:17:20;;;;;;;14.18;2.45;;;5.60;99.90;;;;;;4999112;28;20054;-72
2023/03/04 06:19:47;;;;;;;9.48;2.17;;;5.60;99.90;;;;;;4993314;28;20053;-73
2023/03/04 06:22:12;;;;;;;10.55;2.40;;;5.60;99.90;;;;;;5001836;28;20045;-73
2023/03/04 06:24:39;;;;;;;8.20;2.35;;;5.60;99.90;;;;;;5002180;28;20067;-73
2023/03/04 06:27:05;;;;;;;11.93;2.70;;;5.60;99.90;;;;;;5026748;28;20050;-73
2023/03/04 06:29:31;;;;;;;7.95;2.13;;;5.60;99.90;;;;;;5001868;28;20088;-73
2023/03/04 06:31:57;;;;;;;11.13;2.35;;;5.50;99.90;;;;;;4997836;28;20566;-73
2023/03/04 06:34:23;;;;;;;10.32;2.78;;;5.50;99.90;;;;;;5015955;28;20061;-72
2023/03/04 06:36:49;;;;;;;11.02;2.90;;;5.50;99.90;;;;;;5016101;28;20049;-73
2023/03/04 06:39:16;;;;;;;10.32;2.03;;;5.50;99.90;;;;;;4982847;28;20642;-72
2023/03/04 06:41:41;;;;;;;8.25;2.25;;;5.50;99.90;;;;;;4997270;28;20061;-72
2023/03/04 06:44:07;;;;;;;14.15;3.05;;;5.50;99.90;;;;;;4987101;28;20034;-72
2023/03/04 06:46:34;;;;;;;10.48;2.67;;;5.50;99.90;;;;;;4992638;28;20049;-75
2023/03/04 06:49:00;;;;;;;14.48;3.88;;;5.50;99.90;;;;;;5017327;28;20544;-75
2023/03/04 06:51:30;;;;;;;9.57;2.53;;;5.60;99.90;;;;;;4990866;28;20053;-74
2023/03/04 06:53:56;;;;;;;10.52;2.70;;;5.60;99.90;;;;;;5002769;28;20052;-74
2023/03/04 06:56:22;;;;;;;10.15;2.78;;;5.60;99.90;;;;;;5017655;28;20045;-76
2023/03/04 06:58:48;;;;;;;11.52;3.03;;;5.60;99.90;;;;;;5018444;28;20049;-77
2023/03/04 07:01:17;;;;;;;9.75;2.70;;;5.70;99.90;;;;;;5004289;28;20037;-74
2023/03/04 07:03:44;;;;;;;9.85;2.20;;;5.70;99.90;;;;;;5016872;28;20100;-76
2023/03/04 07:06:16;;;;;;;10.50;2.70;;;5.70;99.90;;;;;;5002749;28;20041;-77
2023/03/04 07:08:43;;;;;;;9.48;2.63;;;5.70;99.90;;;;;;5001616;28;20049;-76
2023/03/04 07:11:09;;;;;;;12.65;2.92;;;5.70;99.90;;;;;;5001252;28;20041;-77
2023/03/04 07:13:37;;;;;;;11.90;2.70;;;5.70;99.90;;;;;;5000377;28;20057;-77
2023/03/04 07:16:12;;;;;;;7.97;2.63;;;5.80;99.90;;;;;;4997909;28;20045;-76
2023/03/04 07:18:38;;;;;;;8.68;2.50;;;5.80;99.90;;;;;;4997013;28;20050;-76
2023/03/04 07:21:06;;;;;;;8.85;2.50;;;5.80;99.90;;;;;;5009653;28;20046;-76
2023/03/04 07:23:35;;;;;;;8.38;2.42;;;5.80;99.90;;;;;;5014437;28;20049;-77
2023/03/04 07:26:02;;;;;;;11.30;2.42;;;5.90;99.90;;;;;;4998152;28;20093;-74
2023/03/04 07:28:27;;;;;;;10.57;2.15;;;5.90;99.90;;;;;;4999573;28;20144;-77
2023/03/04 07:30:53;;;;;;;9.15;2.40;;;5.90;99.90;;;;;;5011659;28;20481;-74
2023/03/04 07:33:19;;;;;;;10.65;1.98;;;6.00;99.90;;;;;;4997186;28;20473;-74
2023/03/04 07:35:45;;;;;;;11.35;3.67;;;6.00;99.90;;;;;;4984690;28;20507;-74
2023/03/04 07:38:11;;;;;;;9.98;2.38;;;6.00;99.90;;;;;;5013832;28;20045;-75
2023/03/04 07:40:37;;;;;;;10.98;2.72;;;6.10;99.90;;;;;;4999207;28;20469;-75
2023/03/04 07:43:03;;;;;;;10.82;2.45;;;6.10;99.90;;;;;;4979679;28;20638;-72
2023/03/04 07:45:29;;;;;;;11.65;1.80;;;6.30;99.90;;;;;;5008284;28;20132;-72
2023/03/04 07:47:58;;;;;;;13.07;2.47;;;6.30;99.90;;;;;;4997918;28;20049;-72
2023/03/04 07:50:27;;;;;;;11.60;1.90;;;6.30;99.90;;;;;;4992853;28;20408;-75
2023/03/04 07:52:53;;;;;;;8.55;2.67;;;6.30;99.90;;;;;;5022387;28;20030;-73
2023/03/04 07:55:19;;;;;;;12.00;2.70;;;6.40;99.90;;;;;;5016653;28;20096;-73
2023/03/04 07:57:46;;;;;;;15.13;2.75;;;6.40;99.90;;;;;;5009301;28;20053;-72
2023/03/04 08:00:14;;;;;;;10.15;2.38;;;6.30;99.90;;;;;;4991328;28;20663;-73
2023/03/04 08:02:41;;;;;;;9.27;2.60;;;6.30;99.90;;;;;;5010794;28;20567;-73
2023/03/04 08:05:07;;;;;;;10.82;2.58;;;6.30;99.90;;;;;;5014245;28;20107;-72
2023/03/04 08:07:34;;;;;;;9.18;2.30;;;6.30;99.90;;;;;;5013092;28;20063;-74
2023/03/04 08:09:59;;;;;;;7.00;2.22;;;6.20;99.90;;;;;;5020576;28;20078;-72
2023/03/04 08:12:26;;;;;;;12.73;2.60;;;6.20;99.90;;;;;;5014384;28;20477;-72
2023/03/04 08:14:53;;;;;;;9.07;2.60;;;6.20;99.90;;;;;;5019332;28;20069;-75
2023/03/04 08:17:19;;;;;;;9.43;2.30;;;6.20;99.90;;;;;;5006898;28;20050;-75
2023/03/04 08:19:45;;;;;;;10.50;2.63;;;6.20;99.90;;;;;;5017987;28;20054;-73
2023/03/04 08:22:11;;;;;;;12.00;2.72;;;6.30;99.90;;;;;;5010279;28;20055;-72
2023/03/04 08:24:37;;;;;;;13.82;2.70;;;6.30;99.90;;;;;;5013805;28;20081;-72
2023/03/04 08:27:04;;;;;;;13.50;2.90;;;6.30;99.90;;;;;;4987920;28;20042;-73
2023/03/04 08:29:30;;;;;;;11.85;3.35;;;6.40;99.90;;;;;;4990715;28;20106;-73
2023/03/04 08:31:56;;;;;;;10.32;2.85;;;6.50;99.90;;;;;;4983591;28;20117;-73
2023/03/04 08:34:25;;;;;;;16.45;4.03;;;6.50;99.90;;;;;;5010391;28;20132;-73
2023/03/04 08:36:51;;;;;;;20.05;4.07;;;6.60;99.90;;;;;;5002054;28;20129;-73
2023/03/04 08:39:17;;;;;;;19.92;3.00;;;6.70;99.90;;;;;;4997504;28;20053;-73
2023/03/04 08:41:45;;;;;;;15.50;3.42;;;6.70;99.90;;;;;;5019287;28;20057;-73
2023/03/04 08:44:11;;;;;;;14.30;3.55;;;6.70;99.90;;;;;;5016830;28;20050;-73
2023/03/04 08:46:39;;;;;;;16.77;3.97;;;6.70;99.90;;;;;;5002867;28;20889;-73
2023/03/04 08:49:05;;;;;;;16.42;3.53;;;6.80;99.90;;;;;;5034013;28;20355;-74
2023/03/04 08:51:31;;;;;;;15.32;3.70;;;6.80;99.90;;;;;;5017191;28;20477;-73
2023/03/04 08:53:57;;;;;;;16.83;3.40;;;6.80;99.90;;;;;;5000617;28;20588;-73
2023/03/04 08:56:23;;;;;;;15.38;3.50;;;6.80;99.90;;;;;;5012754;28;20750;-73
2023/03/04 08:58:49;;;;;;;15.20;3.00;;;6.70;99.90;;;;;;5012987;28;20072;-72
2023/03/04 09:01:15;;;;;;;14.70;3.22;;;6.70;99.90;;;;;;5005846;28;20560;-73
2023/03/04 09:03:41;;;;;;;14.40;2.83;;;6.80;99.90;;;;;;5013756;28;20050;-72
2023/03/04 09:06:08;;;;;;;16.25;3.42;;;6.80;99.90;;;;;;5029843;28;20040;-72
2023/03/04 09:08:34;;;;;;;16.77;3.03;;;6.90;99.90;;;;;;4995129;28;20030;-73
2023/03/04 09:11:01;;;;;;;15.98;3.55;;;6.90;99.90;;;;;;4972433;28;20068;-72
2023/03/04 09:13:29;;;;;;;13.77;2.63;;;6.90;99.90;;;;;;5016374;28;20061;-73
2023/03/04 09:15:55;;;;;;;13.82;3.67;;;6.80;99.90;;;;;;5006393;28;20057;-74
2023/03/04 09:18:22;;;;;;;14.32;2.70;;;6.80;99.90;;;;;;4986251;28;20501;-73
2023/03/04 09:20:49;;;;;;;12.82;2.97;;;6.70;99.90;;;;;;5006964;28;20042;-72
2023/03/04 09:23:15;;;;;;;14.75;3.00;;;6.70;99.90;;;;;;5019963;28;20189;-72
2023/03/04 09:25:42;;;;;;;13.18;2.65;;;6.80;99.90;;;;;;5002649;28;20512;-73
2023/03/04 09:28:13;;;;;;;11.63;2.75;;;6.80;99.90;;;;;;4997133;28;20099;-73
2023/03/04 09:30:39;;;;;;;19.00;3.67;;;6.80;99.90;;;;;;5013207;28;20060;-72
2023/03/04 09:33:05;;;;;;;13.80;3.67;;;6.90;99.90;;;;;;5012946;28;20099;-73
2023/03/04 09:35:31;;;;;;;15.20;3.33;;;6.90;99.90;;;;;;4999820;28;20045;-75
2023/03/04 09:37:58;;;;;;;18.70;4.00;;;6.90;99.90;;;;;;5001359;28;20107;-75
2023/03/04 09:40:32;;;;;;;21.08;3.95;;;7.00;99.90;;;;;;5013273;28;20104;-75
2023/03/04 09:43:04;;;;;;;16.50;3.67;;;7.00;99.90;;;;;;5013106;28;20103;-76
2023/03/04 09:45:40;;;;;;;20.23;3.78;;;7.00;99.90;;;;;;4998466;28;20052;-75
2023/03/04 09:48:09;;;;;;;18.88;3.60;;;7.00;99.90;;;;;;5013017;28;20508;-75
2023/03/04 09:50:41;;;;;;;17.45;3.60;;;7.10;99.90;;;;;;5013420;28;20053;-75
2023/03/04 09:53:22;;;;;;;22.80;4.65;;;7.10;99.90;;;;;;5013573;28;20103;-75
2023/03/04 09:55:51;;;;;;;13.60;3.63;;;7.10;99.90;;;;;;5017153;28;20060;-75
2023/03/04 09:58:55;;;;;;;18.52;3.80;;;7.10;99.90;;;;;;5012180;28;20037;-74
2023/03/04 10:01:41;;;;;;;16.30;3.67;;;7.10;99.90;;;;;;5007100;28;20492;-75
2023/03/04 10:04:16;;;;;;;20.40;3.35;;;7.20;99.90;;;;;;5010227;28;20187;-76
2023/03/04 10:06:45;;;;;;;15.30;3.78;;;7.20;99.90;;;;;;5014257;28;20432;-76
2023/03/04 10:09:24;;;;;;;14.20;2.90;;;7.20;99.90;;;;;;4986966;28;20042;-76
2023/03/04 10:12:06;;;;;;;13.90;3.38;;;7.20;99.90;;;;;;5009713;28;20058;-75
2023/03/04 10:15:08;;;;;;;16.25;3.33;;;7.30;99.90;;;;;;5013183;28;20633;-76
2023/03/04 10:17:41;;;;;;;14.63;3.15;;;7.30;99.90;;;;;;5028916;28;20057;-76
2023/03/04 10:20:20;;;;;;;13.43;3.20;;;7.30;99.90;;;;;;5010099;28;20106;-75
2023/03/04 10:23:00;;;;;;;16.65;3.58;;;7.30;99.90;;;;;;5009925;28;20069;-76
2023/03/04 10:25:29;;;;;;;16.75;3.50;;;7.30;99.90;;;;;;5025364;28;20057;-75
2023/03/04 10:28:16;;;;;;;15.57;3.22;;;7.20;99.90;;;;;;4994773;28;20216;-75
2023/03/04 10:31:07;;;;;;;11.50;2.65;;;7.20;99.90;;;;;;4997089;28;20137;-75
2023/03/04 10:33:36;;;;;;;9.70;1.92;;;7.10;99.90;;;;;;5005399;28;20179;-72
2023/03/04 10:36:28;;;;;;;10.82;2.03;;;7.10;99.90;;;;;;4997334;28;20049;-73
2023/03/04 10:39:16;;;;;;;9.82;1.90;;;7.10;99.90;;;;;;5010920;28;20050;-73
2023/03/04 10:41:44;;;;;;;9.27;2.17;;;7.00;99.90;;;;;;5011773;28;20222;-73
2023/03/04 10:44:15;;;;;;;10.70;2.40;;;7.00;99.90;;;;;;5009666;28;20084;-73
2023/03/04 10:46:43;;;;;;;13.57;2.45;;;7.00;99.90;;;;;;5009242;28;20648;-72
2023/03/04 10:49:10;;;;;;;9.70;1.92;;;7.10;99.90;;;;;;5003703;28;20120;-73
2023/03/04 10:51:46;;;;;;;10.50;2.08;;;7.10;99.90;;;;;;4981818;28;20045;-73
2023/03/04 10:54:44;;;;;;;9.02;1.85;;;7.10;99.90;;;;;;4996198;28;20049;-73
2023/03/04 10:57:16;;;;;;;11.40;2.13;;;7.20;99.90;;;;;;5006585;28;20049;-73
2023/03/04 10:59:56;;;;;;;11.57;2.10;;;7.30;99.90;;;;;;5013916;28;21090;-73
2023/03/04 11:02:36;;;;;;;11.13;1.92;;;7.40;99.90;;;;;;5008125;28;20139;-72
2023/03/04 11:05:14;;;;;;;10.35;2.05;;;7.50;99.90;;;;;;5010018;28;20050;-74
2023/03/04 11:07:49;;;;;;;8.18;1.70;;;7.60;99.90;;;;;;5007088;28;20856;-73
2023/03/04 11:10:24;;;;;;;11.48;2.35;;;7.60;99.90;;;;;;5013259;28;20060;-75
2023/03/04 11:13:06;;;;;;;11.98;2.78;;;7.60;99.90;;;;;;4998722;28;20512;-71
2023/03/04 11:15:52;;;;;;;9.80;2.45;;;7.50;99.90;;;;;;5003001;28;20295;-76
2023/03/04 11:18:40;;;;;;;13.85;2.25;;;7.50;99.90;;;;;;5009362;28;20160;-74
2023/03/04 11:21:06;;;;;;;13.70;3.05;;;7.40;99.90;;;;;;5011860;28;20662;-75
2023/03/04 11:24:10;;;;;;;11.32;2.75;;;7.40;99.90;;;;;;4999468;28;20568;-71
2023/03/04 11:26:42;;;;;;;13.95;2.78;;;7.40;99.90;;;;;;4996736;28;20077;-72
2023/03/04 11:29:13;;;;;;;14.57;3.25;;;7.40;99.90;;;;;;5009081;28;20040;-72
2023/03/04 11:31:46;;;;;;;17.55;3.67;;;7.50;99.90;;;;;;5002591;28;20073;-72
2023/03/04 11:34:37;;;;;;;19.15;3.90;;;7.40;99.90;;;;;;5010298;28;20080;-72
2023/03/04 11:37:14;;;;;;;13.10;3.15;;;7.40;99.90;;;;;;4994422;28;20064;-72
2023/03/04 11:39:43;;;;;;;17.75;3.50;;;7.30;99.90;;;;;;5006115;28;20057;-73
2023/03/04 11:42:22;;;;;;;27.35;5.25;;;7.20;99.90;;;;;;5005527;28;20045;-72
2023/03/04 11:44:48;;;;;;;16.10;3.88;;;7.20;99.90;;;;;;5013040;28;20071;-73
2023/03/04 11:47:33;;;;;;;19.40;4.38;;;7.20;99.90;;;;;;4985044;28;20065;-72
2023/03/04 11:50:22;;;;;;;14.57;3.38;;;7.30;99.90;;;;;;5016232;28;20511;-72
2023/03/04 11:53:19;;;;;;;16.40;3.83;;;7.30;99.90;;;;;;5007175;28;20105;-71
2023/03/04 11:56:03;;;;;;;15.77;3.60;;;7.30;99.90;;;;;;5005377;28;20058;-73
2023/03/04 11:58:41;;;;;;;16.63;3.88;;;7.40;99.90;;;;;;5014726;28;20041;-73
2023/03/04 12:01:36;;;;;;;13.13;3.15;;;7.40;99.90;;;;;;5015671;28;20056;-72
2023/03/04 12:04:14;;;;;;;15.38;3.33;;;7.40;99.90;;;;;;5017328;28;20045;-72
2023/03/04 12:06:40;;;;;;;14.90;3.95;;;7.50;99.90;;;;;;5018245;28;20049;-73
2023/03/04 12:09:16;;;;;;;14.90;3.08;;;7.50;99.90;;;;;;5013244;28;20867;-72
2023/03/04 12:12:09;;;;;;;15.43;3.63;;;7.50;99.90;;;;;;4999846;28;20060;-73
2023/03/04 12:15:03;;;;;;;15.77;3.38;;;7.60;99.90;;;;;;5025670;28;20057;-72
2023/03/04 12:17:59;;;;;;;13.52;3.22;;;7.60;99.90;;;;;;5014131;28;20045;-73
2023/03/04 12:20:37;;;;;;;12.25;2.70;;;7.70;99.90;;;;;;5010966;28;20056;-73
2023/03/04 12:23:32;;;;;;;13.30;2.85;;;7.70;99.90;;;;;;5012299;28;20121;-72
2023/03/04 12:25:58;;;;;;;12.52;3.20;;;7.70;99.90;;;;;;5012436;28;20054;-72
2023/03/04 12:28:41;;;;;;;12.25;2.67;;;7.70;99.90;;;;;;5005674;28;20041;-73
2023/03/04 12:31:13;;;;;;;14.35;2.78;;;7.70;99.90;;;;;;5007739;28;20077;-72
2023/03/04 12:34:01;;;;;;;13.65;3.30;;;7.80;99.90;;;;;;5013365;28;20069;-72
2023/03/04 12:36:37;;;;;;;14.63;3.20;;;7.80;99.90;;;;;;5012168;28;20053;-71
2023/03/04 12:39:58;;;;;;;13.82;3.25;;;7.80;99.90;;;;;;4993057;28;20509;-72
2023/03/04 12:42:43;;;;;;;17.02;3.70;;;7.70;99.90;;;;;;4950356;28;20547;-71
2023/03/04 12:45:21;;;;;;;13.60;4.00;;;7.50;99.90;;;;;;5019135;28;20053;-73
2023/03/04 12:48:16;;;;;;;13.80;3.45;;;7.40;99.90;;;;;;5024657;28;20045;-73
2023/03/04 12:50:42;;;;;;;19.48;4.10;;;7.30;99.90;;;;;;5008406;28;20128;-73
2023/03/04 12:53:14;;;;;;;17.35;3.92;;;7.30;99.90;;;;;;5004269;28;20148;-73
2023/03/04 12:55:43;;;;;;;15.27;3.53;;;7.30;99.90;;;;;;5014858;28;20061;-71
2023/03/04 12:58:17;;;;;;;18.98;4.57;;;7.30;99.90;;;;;;5009764;28;20045;-72
2023/03/04 13:00:48;;;;;;;18.73;3.25;;;7.20;99.90;;;;;;5009312;28;20054;-73
2023/03/04 13:03:36;;;;;;;14.15;3.90;;;7.30;99.90;;;;;;5013268;28;20794;-73